createdAt,value
2023-01-11T00:01:52.162Z,3.97
2023-01-11T00:03:55.722Z,2.90
2023-01-11T00:05:59.708Z,3.67
2023-01-11T00:08:04.633Z,2.80
2023-01-11T00:10:08.530Z,3.50
2023-01-11T00:12:14.087Z,3.50
2023-01-11T00:14:17.418Z,2.90
2023-01-11T00:16:20.287Z,3.37
2023-01-11T00:18:23.341Z,3.13
2023-01-11T00:20:26.445Z,2.90
2023-01-11T00:22:29.217Z,3.00
2023-01-11T00:24:33.642Z,2.93
2023-01-11T00:26:36.398Z,3.47
2023-01-11T00:28:39.191Z,3.20
2023-01-11T00:30:41.932Z,3.10
2023-01-11T00:32:45.067Z,3.00
2023-01-11T00:34:47.816Z,3.60
2023-01-11T00:36:51.626Z,3.23
2023-01-11T00:38:55.321Z,3.03
2023-01-11T00:41:19.507Z,3.40
2023-01-11T00:43:45.046Z,3.37
2023-01-11T00:46:05.479Z,3.10
2023-01-11T00:48:09.616Z,2.90
2023-01-11T00:50:12.366Z,3.10
2023-01-11T00:52:15.206Z,3.13
2023-01-11T00:54:18.083Z,3.23
2023-01-11T00:56:22.128Z,2.97
2023-01-11T00:58:24.893Z,3.10
2023-01-11T01:00:29.159Z,2.50
2023-01-11T01:02:33.829Z,3.20
2023-01-11T01:04:36.659Z,3.17
2023-01-11T01:06:39.392Z,3.70
2023-01-11T01:08:42.134Z,2.57
2023-01-11T01:10:44.867Z,2.70
2023-01-11T01:13:06.992Z,3.07
2023-01-11T01:15:10.665Z,2.60
2023-01-11T01:17:13.416Z,2.40
2023-01-11T01:19:16.751Z,2.53
2023-01-11T01:21:19.675Z,2.60
2023-01-11T01:23:22.507Z,2.70
2023-01-11T01:25:25.253Z,2.70
2023-01-11T01:27:31.856Z,2.73
2023-01-11T01:29:35.934Z,2.40
2023-01-11T01:31:38.903Z,2.80
2023-01-11T01:33:41.735Z,2.80
2023-01-11T01:35:44.518Z,3.23
2023-01-11T01:37:47.276Z,3.13
2023-01-11T01:39:50.045Z,3.10
2023-01-11T01:41:52.817Z,3.23
2023-01-11T01:43:56.982Z,3.30
2023-01-11T01:46:01.083Z,3.07
2023-01-11T01:48:05.877Z,3.23
2023-01-11T01:50:13.877Z,2.90
2023-01-11T01:52:17.934Z,3.77
2023-01-11T01:54:24.661Z,3.60
2023-01-11T01:56:31.881Z,3.83
2023-01-11T01:58:39.231Z,4.67
2023-01-11T02:00:45.036Z,3.77
2023-01-11T02:02:50.203Z,3.97
2023-01-11T02:04:55.571Z,4.23
2023-01-11T02:07:00.945Z,4.37
2023-01-11T02:09:09.742Z,3.17
2023-01-11T02:11:29.704Z,3.63
2023-01-11T02:13:45.805Z,3.10
2023-01-11T02:16:07.337Z,3.40
2023-01-11T02:18:13.629Z,3.70
2023-01-11T02:20:40.373Z,3.47
2023-01-11T02:23:28.090Z,3.57
2023-01-11T02:26:16.231Z,3.27
2023-01-11T02:28:24.800Z,3.63
2023-01-11T02:30:35.128Z,3.70
2023-01-11T02:32:49.683Z,4.10
2023-01-11T02:35:02.880Z,4.53
2023-01-11T02:37:20.662Z,4.70
2023-01-11T02:39:31.907Z,4.47
2023-01-11T02:41:53.939Z,4.10
2023-01-11T02:44:21.176Z,4.10
2023-01-11T02:46:31.166Z,4.40
2023-01-11T02:48:40.837Z,4.70
2023-01-11T02:50:49.511Z,4.67
2023-01-11T02:52:59.611Z,4.93
2023-01-11T02:55:04.203Z,5.10
2023-01-11T02:57:07.714Z,4.90
2023-01-11T02:59:16.784Z,4.97
2023-01-11T03:01:23.329Z,5.27
2023-01-11T03:03:28.073Z,5.10
2023-01-11T03:05:31.002Z,5.27
2023-01-11T03:07:47.948Z,4.93
2023-01-11T03:10:02.859Z,5.03
2023-01-11T03:12:34.380Z,5.70
2023-01-11T03:14:47.323Z,4.97
2023-01-11T03:16:56.527Z,4.90
2023-01-11T03:19:12.561Z,5.43
2023-01-11T03:21:36.081Z,5.20
2023-01-11T03:23:47.807Z,5.73
2023-01-11T03:25:59.494Z,6.47
2023-01-11T03:28:10.435Z,5.70
2023-01-11T03:30:20.384Z,4.90
2023-01-11T03:32:30.809Z,6.13
2023-01-11T03:34:39.182Z,5.83
2023-01-11T03:36:48.441Z,5.53
2023-01-11T03:38:56.449Z,6.00
2023-01-11T03:41:05.189Z,6.30
2023-01-11T03:43:12.438Z,6.47
2023-01-11T03:45:17.447Z,6.43
2023-01-11T03:47:25.260Z,6.33
2023-01-11T03:49:32.067Z,5.90
2023-01-11T03:51:41.562Z,6.53
2023-01-11T03:53:47.407Z,6.73
2023-01-11T03:55:55.486Z,6.33
2023-01-11T03:57:59.029Z,7.00
2023-01-11T04:00:02.654Z,6.40
2023-01-11T04:02:15.165Z,6.80
2023-01-11T04:04:18.013Z,7.00
2023-01-11T04:06:21.046Z,7.27
2023-01-11T04:08:24.141Z,6.33
2023-01-11T04:10:27.202Z,6.77
2023-01-11T04:12:29.928Z,6.60
2023-01-11T04:14:32.739Z,7.40
2023-01-11T04:16:35.556Z,7.40
2023-01-11T04:18:39.825Z,9.23
2023-01-11T04:20:42.763Z,7.77
2023-01-11T04:22:45.619Z,7.30
2023-01-11T04:24:48.463Z,8.30
2023-01-11T04:26:51.259Z,8.67
2023-01-11T04:28:54.500Z,7.93
2023-01-11T04:30:57.402Z,8.60
2023-01-11T04:33:00.567Z,8.97
2023-01-11T04:35:05.313Z,9.50
2023-01-11T04:37:08.394Z,8.77
2023-01-11T04:39:11.623Z,9.17
2023-01-11T04:41:31.921Z,9.37
2023-01-11T04:43:34.724Z,9.50
2023-01-11T04:45:37.607Z,9.07
2023-01-11T04:47:40.685Z,8.13
2023-01-11T04:49:43.866Z,8.83
2023-01-11T04:51:48.098Z,8.10
2023-01-11T04:53:51.050Z,8.13
2023-01-11T04:55:53.787Z,7.83
2023-01-11T04:57:56.556Z,8.20
2023-01-11T04:59:59.267Z,7.50
2023-01-11T05:02:03.994Z,7.83
2023-01-11T05:04:06.953Z,8.20
2023-01-11T05:06:09.774Z,7.77
2023-01-11T05:08:13.876Z,7.10
2023-01-11T05:10:17.126Z,7.47
2023-01-11T05:12:19.897Z,7.63
2023-01-11T05:14:22.802Z,7.13
2023-01-11T05:16:25.765Z,8.10
2023-01-11T05:18:28.504Z,8.77
2023-01-11T05:20:31.236Z,8.50
2023-01-11T05:22:34.205Z,8.60
2023-01-11T05:24:38.376Z,8.50
2023-01-11T05:26:42.950Z,8.30
2023-01-11T05:28:46.271Z,8.87
2023-01-11T05:30:52.698Z,8.80
2023-01-11T05:32:56.192Z,9.20
2023-01-11T05:34:58.943Z,8.60
2023-01-11T05:37:01.867Z,8.00
2023-01-11T05:39:06.088Z,8.27
2023-01-11T05:41:11.217Z,8.40
2023-01-11T05:43:14.069Z,8.23
2023-01-11T05:45:32.794Z,7.60
2023-01-11T05:47:35.565Z,8.17
2023-01-11T05:49:38.337Z,8.20
2023-01-11T05:51:41.848Z,8.80
2023-01-11T05:53:45.148Z,8.70
2023-01-11T05:55:54.967Z,9.73
2023-01-11T05:57:59.053Z,9.93
2023-01-11T06:00:01.772Z,10.47
2023-01-11T06:02:04.575Z,9.73
2023-01-11T06:04:09.373Z,10.10
2023-01-11T06:06:12.375Z,10.43
2023-01-11T06:08:15.772Z,10.60
2023-01-11T06:10:19.504Z,11.60
2023-01-11T06:12:22.401Z,10.53
2023-01-11T06:14:26.750Z,11.27
2023-01-11T06:16:29.601Z,11.53
2023-01-11T06:18:34.397Z,11.50
2023-01-11T06:20:37.405Z,11.30
2023-01-11T06:22:40.336Z,11.27
2023-01-11T06:24:43.469Z,10.90
2023-01-11T06:26:46.439Z,11.87
2023-01-11T06:28:50.136Z,12.03
2023-01-11T06:30:55.843Z,11.27
2023-01-11T06:33:05.640Z,11.67
2023-01-11T06:35:09.086Z,11.53
2023-01-11T06:37:11.922Z,12.50
2023-01-11T06:39:14.714Z,12.50
2023-01-11T06:41:17.472Z,12.37
2023-01-11T06:43:20.579Z,12.73
2023-01-11T06:45:23.507Z,12.33
2023-01-11T06:47:27.742Z,12.50
2023-01-11T06:49:30.583Z,13.53
2023-01-11T06:51:33.471Z,13.77
2023-01-11T06:53:36.294Z,14.83
2023-01-11T06:55:39.111Z,15.47
2023-01-11T06:57:43.716Z,15.90
2023-01-11T06:59:48.870Z,16.50
2023-01-11T07:01:51.805Z,17.17
2023-01-11T07:03:56.071Z,18.63
2023-01-11T07:05:59.451Z,19.47
2023-01-11T07:08:02.674Z,18.60
2023-01-11T07:10:07.752Z,18.23
2023-01-11T07:12:10.502Z,21.10
2023-01-11T07:14:18.769Z,21.23
2023-01-11T07:16:22.079Z,19.90
2023-01-11T07:18:24.993Z,18.67
2023-01-11T07:20:29.564Z,33.63
2023-01-11T07:22:35.127Z,25.30
2023-01-11T07:24:37.932Z,24.13
2023-01-11T07:26:42.154Z,28.20
2023-01-11T07:28:45.295Z,37.57
2023-01-11T07:30:58.170Z,28.43
2023-01-11T07:33:04.155Z,27.33
2023-01-11T07:35:08.288Z,22.27
2023-01-11T07:37:28.042Z,23.77
2023-01-11T07:39:42.680Z,22.47
2023-01-11T07:42:00.633Z,23.07
2023-01-11T07:44:03.805Z,19.93
2023-01-11T07:46:09.500Z,21.00
2023-01-11T07:48:13.317Z,20.67
2023-01-11T07:50:17.241Z,20.77
2023-01-11T07:52:22.887Z,22.53
2023-01-11T07:54:25.815Z,21.17
2023-01-11T07:56:28.812Z,20.53
2023-01-11T07:58:33.022Z,20.30
2023-01-11T08:00:36.099Z,22.00
2023-01-11T08:02:39.455Z,22.43
2023-01-11T08:04:42.642Z,23.03
2023-01-11T08:06:45.510Z,21.87
2023-01-11T08:08:49.978Z,21.33
2023-01-11T08:11:12.921Z,21.70
2023-01-11T08:13:33.348Z,22.03
2023-01-11T08:15:37.040Z,24.73
2023-01-11T08:17:40.181Z,22.37
2023-01-11T08:19:43.799Z,23.43
2023-01-11T08:21:50.702Z,21.87
2023-01-11T08:23:56.117Z,22.40
2023-01-11T08:25:59.190Z,27.57
2023-01-11T08:28:03.557Z,24.30
2023-01-11T08:30:07.905Z,23.77
2023-01-11T08:32:10.983Z,23.90
2023-01-11T08:34:13.977Z,21.90
2023-01-11T08:36:17.118Z,21.97
2023-01-11T08:38:20.152Z,22.43
2023-01-11T08:40:25.458Z,21.90
2023-01-11T08:42:28.503Z,26.07
2023-01-11T08:44:34.996Z,26.77
2023-01-11T08:46:42.150Z,23.30
2023-01-11T08:48:46.743Z,26.20
2023-01-11T08:50:49.955Z,24.47
2023-01-11T08:52:53.148Z,24.90
2023-01-11T08:54:56.253Z,24.23
2023-01-11T08:57:00.635Z,24.17
2023-01-11T08:59:03.980Z,21.93
2023-01-11T09:01:09.171Z,22.30
2023-01-11T09:03:13.349Z,22.67
2023-01-11T09:05:18.547Z,26.57
2023-01-11T09:07:21.459Z,22.50
2023-01-11T09:09:24.468Z,22.17
2023-01-11T09:11:44.997Z,20.87
2023-01-11T09:13:51.458Z,19.83
2023-01-11T09:15:57.267Z,20.63
2023-01-11T09:18:00.272Z,20.50
2023-01-11T09:20:03.167Z,21.27
2023-01-11T09:22:06.125Z,21.33
2023-01-11T09:24:09.399Z,20.70
2023-01-11T09:26:12.486Z,19.77
2023-01-11T09:28:15.465Z,20.53
2023-01-11T09:30:23.655Z,36.90
2023-01-11T09:32:26.695Z,30.90
2023-01-11T09:34:30.058Z,37.47
2023-01-11T09:36:35.701Z,29.07
2023-01-11T09:38:39.737Z,31.53
2023-01-11T09:40:55.773Z,23.23
2023-01-11T09:43:01.338Z,45.27
2023-01-11T09:45:13.605Z,25.37
2023-01-11T09:47:26.348Z,42.67
2023-01-11T09:49:35.179Z,29.03
2023-01-11T09:51:39.476Z,30.47
2023-01-11T09:53:46.410Z,31.37
2023-01-11T09:55:52.181Z,30.33
2023-01-11T09:58:08.521Z,34.97
2023-01-11T10:00:22.432Z,29.97
2023-01-11T10:02:38.472Z,42.97
2023-01-11T10:05:10.487Z,41.70
2023-01-11T10:07:42.915Z,25.93
2023-01-11T10:18:33.343Z,25.57
2023-01-11T10:18:38.411Z,28.63
2023-01-11T10:20:02.088Z,56.07
2023-01-11T10:22:12.101Z,21.40
2023-01-11T10:24:24.126Z,24.10
2023-01-11T10:26:32.288Z,20.10
2023-01-11T10:28:43.089Z,21.07
2023-01-11T10:31:06.703Z,40.00
2023-01-11T10:33:29.905Z,18.50
2023-01-11T10:36:02.729Z,17.03
2023-01-11T10:38:30.707Z,15.37
2023-01-11T10:43:20.523Z,14.40
2023-01-11T10:45:39.226Z,15.37
2023-01-11T10:47:49.002Z,13.93
2023-01-11T10:49:55.961Z,13.67
2023-01-11T10:52:05.628Z,13.73
2023-01-11T10:54:19.283Z,13.43
2023-01-11T10:56:30.442Z,13.60
2023-01-11T10:58:50.446Z,12.27
2023-01-11T11:01:08.430Z,12.33
2023-01-11T11:03:41.376Z,12.07
2023-01-11T11:05:53.857Z,11.43
2023-01-11T11:08:00.069Z,10.50
2023-01-11T11:10:10.691Z,9.40
2023-01-11T11:12:20.272Z,9.13
2023-01-11T11:14:31.376Z,8.83
2023-01-11T11:16:46.744Z,8.60
2023-01-11T11:18:50.505Z,8.13
2023-01-11T11:20:53.353Z,7.63
2023-01-11T11:22:57.491Z,6.77
2023-01-11T11:25:04.807Z,7.23
2023-01-11T11:27:14.715Z,7.27
2023-01-11T11:29:30.780Z,6.90
2023-01-11T11:31:37.336Z,7.23
2023-01-11T11:33:41.378Z,6.73
2023-01-11T11:35:49.112Z,7.73
2023-01-11T11:37:55.665Z,7.60
2023-01-11T11:39:58.464Z,7.90
2023-01-11T11:42:07.603Z,8.03
2023-01-11T11:44:18.320Z,8.07
2023-01-11T11:46:26.976Z,7.70
2023-01-11T11:48:32.826Z,8.23
2023-01-11T11:50:44.622Z,8.43
2023-01-11T11:52:52.515Z,8.70
2023-01-11T11:54:59.048Z,8.33
2023-01-11T11:57:15.761Z,8.47
2023-01-11T11:59:20.890Z,9.60
2023-01-11T12:01:28.344Z,9.50
2023-01-11T12:03:33.663Z,10.17
2023-01-11T12:05:36.836Z,8.80
2023-01-11T12:07:54.762Z,9.07
2023-01-11T12:10:01.340Z,9.40
2023-01-11T12:12:05.466Z,9.30
2023-01-11T12:14:18.562Z,8.60
2023-01-11T12:16:50.233Z,8.17
2023-01-11T12:18:54.707Z,8.00
2023-01-11T12:21:10.355Z,7.70
2023-01-11T12:23:21.374Z,7.60
2023-01-11T12:25:25.246Z,8.17
2023-01-11T12:27:39.581Z,8.10
2023-01-11T12:29:51.885Z,7.97
2023-01-11T12:32:15.975Z,8.33
2023-01-11T12:34:35.106Z,7.90
2023-01-11T12:36:46.502Z,8.33
2023-01-11T12:39:02.695Z,8.17
2023-01-11T12:41:47.667Z,7.90
2023-01-11T12:44:03.809Z,7.83
2023-01-11T12:46:17.327Z,8.43
2023-01-11T12:48:33.124Z,8.47
2023-01-11T12:50:51.299Z,8.63
2023-01-11T12:53:03.522Z,8.60
2023-01-11T12:55:25.782Z,8.37
2023-01-11T12:57:35.089Z,8.53
2023-01-11T13:00:06.983Z,8.47
2023-01-11T13:02:30.954Z,7.50
2023-01-11T13:04:54.277Z,7.50
2023-01-11T13:07:09.549Z,7.27
2023-01-11T13:09:21.569Z,7.13
2023-01-11T13:11:36.555Z,7.13
2023-01-11T13:13:52.874Z,6.80
2023-01-11T13:16:00.327Z,6.70
2023-01-11T13:18:10.342Z,6.53
2023-01-11T13:20:34.246Z,6.97
2023-01-11T13:23:05.937Z,6.93
2023-01-11T13:25:17.758Z,7.10
2023-01-11T13:27:24.176Z,7.53
2023-01-11T13:29:30.487Z,7.13
2023-01-11T13:31:34.802Z,6.77
2023-01-11T13:33:43.044Z,6.80
2023-01-11T13:35:51.719Z,7.43
2023-01-11T13:37:59.655Z,6.90
2023-01-11T13:40:16.708Z,7.00
2023-01-11T13:42:28.417Z,6.90
2023-01-11T13:44:37.207Z,7.53
2023-01-11T13:46:49.880Z,7.00
2023-01-11T13:48:56.991Z,6.83
2023-01-11T13:51:06.003Z,5.27
2023-01-11T13:53:16.638Z,3.80
2023-01-11T13:55:27.133Z,3.77
2023-01-11T13:57:37.813Z,3.17
2023-01-11T13:59:44.568Z,2.83
2023-01-11T14:01:53.576Z,2.20
2023-01-11T14:04:02.030Z,2.10
2023-01-11T14:06:18.840Z,2.30
2023-01-11T14:08:45.395Z,2.60
2023-01-11T14:11:01.783Z,2.43
2023-01-11T14:13:38.026Z,1.93
2023-01-11T14:15:45.220Z,1.60
2023-01-11T14:18:11.132Z,2.33
2023-01-11T14:20:22.693Z,2.23
2023-01-11T14:22:36.081Z,2.27
2023-01-11T14:24:45.348Z,2.17
2023-01-11T14:27:18.035Z,2.67
2023-01-11T14:29:38.460Z,2.23
2023-01-11T14:31:54.330Z,2.17
2023-01-11T14:34:20.076Z,2.20
2023-01-11T14:37:02.365Z,2.40
2023-01-11T14:39:37.461Z,2.10
2023-01-11T14:42:09.510Z,2.20
2023-01-11T14:44:39.878Z,2.50
2023-01-11T14:47:02.912Z,2.40
2023-01-11T14:49:16.964Z,2.77
2023-01-11T14:51:33.118Z,2.87
2023-01-11T14:53:42.349Z,2.30
2023-01-11T14:55:46.332Z,2.20
2023-01-11T14:58:04.708Z,2.17
2023-01-11T15:00:53.437Z,2.20
2023-01-11T15:03:30.719Z,2.03
2023-01-11T15:05:40.760Z,2.27
2023-01-11T15:07:43.743Z,2.20
2023-01-11T15:09:48.498Z,2.10
2023-01-11T15:11:51.525Z,2.33
2023-01-11T15:13:58.101Z,2.00
2023-01-11T15:16:36.526Z,2.93
2023-01-11T15:18:45.733Z,2.53
2023-01-11T15:20:53.773Z,2.50
2023-01-11T15:22:58.361Z,2.30
2023-01-11T15:25:03.037Z,2.63
2023-01-11T15:27:06.082Z,2.40
2023-01-11T15:29:23.115Z,2.60
2023-01-11T15:31:36.554Z,2.57
2023-01-11T15:33:50.995Z,3.80
2023-01-11T15:36:03.944Z,3.27
2023-01-11T15:38:16.232Z,3.00
2023-01-11T15:40:21.645Z,2.77
2023-01-11T15:43:20.633Z,3.10
2023-01-11T15:46:00.496Z,2.70
2023-01-11T15:48:27.546Z,2.20
2023-01-11T15:51:00.443Z,2.70
2023-01-11T15:53:28.960Z,3.07
2023-01-11T15:56:05.060Z,2.70
2023-01-11T15:58:40.181Z,2.50
2023-01-11T16:01:07.462Z,2.50
2023-01-11T16:03:31.036Z,2.70
2023-01-11T16:05:38.483Z,3.00
2023-01-11T16:07:47.957Z,2.63
2023-01-11T16:10:06.803Z,2.87
2023-01-11T16:12:37.983Z,2.20
2023-01-11T16:14:55.256Z,2.97
2023-01-11T16:16:58.875Z,2.70
2023-01-11T16:19:08.883Z,2.10
2023-01-11T16:21:18.949Z,2.67
2023-01-11T16:23:22.344Z,2.67
2023-01-11T16:25:29.664Z,2.47
2023-01-11T16:27:35.645Z,2.47
2023-01-11T16:29:39.059Z,2.53
2023-01-11T16:32:02.431Z,2.83
2023-01-11T16:34:08.786Z,2.43
2023-01-11T16:36:13.905Z,2.53
2023-01-11T16:38:19.565Z,3.23
2023-01-11T16:40:25.496Z,2.80
2023-01-11T16:42:34.233Z,3.27
2023-01-11T16:44:44.430Z,2.93
2023-01-11T16:47:11.326Z,2.87
2023-01-11T16:49:18.761Z,3.23
2023-01-11T16:51:21.600Z,3.07
2023-01-11T16:53:25.939Z,3.27
2023-01-11T16:55:33.942Z,3.10
2023-01-11T16:57:42.226Z,3.00
2023-01-11T17:00:00.062Z,3.13
2023-01-11T17:02:04.275Z,2.87
2023-01-11T17:04:10.093Z,2.70
2023-01-11T17:06:25.374Z,3.43
2023-01-11T17:08:31.442Z,3.80
2023-01-11T17:10:34.537Z,3.83
2023-01-11T17:12:37.627Z,4.10
2023-01-11T17:15:10.522Z,4.00
2023-01-11T17:17:14.909Z,4.70
2023-01-11T17:19:20.089Z,4.50
2023-01-11T17:21:26.573Z,4.63
2023-01-11T17:23:29.456Z,4.17
2023-01-11T17:25:44.327Z,4.33
2023-01-11T17:27:50.981Z,4.67
2023-01-11T17:29:56.605Z,4.37
2023-01-11T17:32:02.673Z,5.23
2023-01-11T17:34:08.348Z,4.77
2023-01-11T17:36:11.407Z,4.50
2023-01-11T17:38:17.919Z,5.83
2023-01-11T17:40:26.617Z,6.00
2023-01-11T17:42:47.301Z,5.90
2023-01-11T17:45:09.559Z,5.33
2023-01-11T17:47:13.447Z,4.43
2023-01-11T17:49:22.944Z,4.00
2023-01-11T17:51:27.993Z,4.60
2023-01-11T17:53:34.490Z,5.40
2023-01-11T17:55:37.404Z,4.80
2023-01-11T17:57:40.553Z,4.30
2023-01-11T17:59:43.422Z,4.37
2023-01-11T18:01:48.502Z,4.50
2023-01-11T18:03:53.347Z,4.40
2023-01-11T18:05:56.897Z,4.50
2023-01-11T18:08:00.873Z,4.77
2023-01-11T18:10:05.825Z,4.67
2023-01-11T18:12:14.386Z,6.10
2023-01-11T18:14:20.689Z,4.70
2023-01-11T18:16:25.539Z,5.03
2023-01-11T18:18:42.407Z,4.53
2023-01-11T18:20:45.387Z,4.97
2023-01-11T18:22:59.445Z,4.37
2023-01-11T18:25:04.373Z,4.33
2023-01-11T18:27:27.632Z,4.43
2023-01-11T18:29:49.315Z,4.73
2023-01-11T18:31:57.844Z,4.57
2023-01-11T18:34:00.677Z,4.63
2023-01-11T18:36:05.136Z,4.00
2023-01-11T18:38:17.005Z,4.70
2023-01-11T18:40:21.484Z,5.10
2023-01-11T18:42:31.239Z,5.10
2023-01-11T18:44:35.063Z,5.13
2023-01-11T18:46:37.924Z,5.53
2023-01-11T18:48:40.847Z,4.87
2023-01-11T18:50:46.319Z,5.33
2023-01-11T18:52:49.044Z,5.10
2023-01-11T18:54:52.371Z,4.47
2023-01-11T18:56:55.105Z,5.10
2023-01-11T18:59:01.864Z,5.40
2023-01-11T19:01:07.435Z,5.00
2023-01-11T19:03:11.934Z,5.93
2023-01-11T19:05:18.492Z,5.30
2023-01-11T19:07:22.849Z,4.77
2023-01-11T19:09:25.755Z,4.70
2023-01-11T19:11:30.972Z,4.60
2023-01-11T19:13:33.804Z,4.63
2023-01-11T19:15:41.177Z,3.80
2023-01-11T19:17:44.552Z,4.30
2023-01-11T19:19:47.558Z,5.03
2023-01-11T19:21:50.494Z,3.77
2023-01-11T19:23:53.223Z,4.10
2023-01-11T19:25:59.615Z,3.70
2023-01-11T19:28:03.351Z,4.23
2023-01-11T19:30:07.375Z,4.30
2023-01-11T19:32:11.572Z,4.67
2023-01-11T19:34:15.005Z,4.03
2023-01-11T19:36:17.975Z,4.77
2023-01-11T19:38:21.446Z,4.10
2023-01-11T19:40:24.266Z,4.33
2023-01-11T19:42:27.237Z,4.63
2023-01-11T19:44:33.054Z,4.37
2023-01-11T19:46:35.756Z,4.10
2023-01-11T19:48:41.960Z,4.10
2023-01-11T19:50:44.710Z,3.70
2023-01-11T19:52:49.258Z,4.37
2023-01-11T19:54:53.165Z,3.70
2023-01-11T19:56:56.480Z,4.00
2023-01-11T19:58:59.228Z,3.97
2023-01-11T20:01:02.161Z,3.67
2023-01-11T20:03:06.342Z,3.47
2023-01-11T20:05:11.203Z,3.93
2023-01-11T20:07:16.052Z,3.30
2023-01-11T20:09:19.557Z,3.90
2023-01-11T20:11:23.054Z,3.00
2023-01-11T20:13:26.418Z,3.87
2023-01-11T20:15:29.174Z,4.60
2023-01-11T20:17:32.711Z,4.10
2023-01-11T20:19:35.463Z,4.13
2023-01-11T20:21:39.568Z,5.00
2023-01-11T20:23:42.295Z,4.47
2023-01-11T20:25:44.989Z,4.87
2023-01-11T20:27:47.741Z,5.13
2023-01-11T20:29:50.461Z,4.50
2023-01-11T20:31:53.437Z,4.77
2023-01-11T20:33:56.567Z,4.80
2023-01-11T20:35:59.305Z,4.47
2023-01-11T20:38:03.368Z,4.30
2023-01-11T20:40:07.190Z,4.07
2023-01-11T20:42:12.342Z,4.27
2023-01-11T20:44:16.891Z,4.60
2023-01-11T20:46:19.638Z,4.10
2023-01-11T20:48:22.780Z,4.10
2023-01-11T20:50:26.220Z,3.90
2023-01-11T20:52:28.932Z,3.53
2023-01-11T20:54:33.011Z,4.10
2023-01-11T20:56:36.547Z,4.37
2023-01-11T20:58:39.542Z,4.40
2023-01-11T21:00:42.447Z,4.13
2023-01-11T21:02:45.519Z,4.30
2023-01-11T21:04:48.304Z,4.80
2023-01-11T21:06:51.090Z,5.10
2023-01-11T21:08:56.231Z,4.80
2023-01-11T21:11:05.240Z,5.27
2023-01-11T21:15:24.291Z,3.50
2023-01-11T21:17:27.075Z,4.37
2023-01-11T21:19:29.851Z,4.47
2023-01-11T21:21:34.381Z,4.40
2023-01-11T21:23:37.183Z,4.97
2023-01-11T21:25:39.950Z,4.53
2023-01-11T21:27:44.118Z,4.70
2023-01-11T21:29:49.611Z,4.97
2023-01-11T21:31:52.412Z,4.83
2023-01-11T21:33:55.373Z,4.50
2023-01-11T21:36:03.043Z,4.70
2023-01-11T21:38:05.960Z,5.07
2023-01-11T21:40:11.601Z,4.87
2023-01-11T21:42:14.460Z,5.10
2023-01-11T21:44:19.774Z,5.10
2023-01-11T21:46:22.631Z,4.80
2023-01-11T21:48:25.410Z,4.63
2023-01-11T21:50:28.145Z,5.17
2023-01-11T21:52:30.888Z,4.93
2023-01-11T21:54:33.657Z,5.20
2023-01-11T21:56:36.620Z,5.00
2023-01-11T21:58:39.522Z,5.53
2023-01-11T22:00:43.691Z,5.00
2023-01-11T22:02:46.452Z,4.37
2023-01-11T22:04:52.971Z,4.80
2023-01-11T22:06:57.230Z,5.03
2023-01-11T22:09:02.557Z,4.50
2023-01-11T22:11:07.553Z,4.40
2023-01-11T22:13:12.821Z,4.30
2023-01-11T22:15:15.925Z,5.03
2023-01-11T22:17:20.172Z,5.03
2023-01-11T22:19:23.090Z,4.60
2023-01-11T22:21:26.187Z,4.43
2023-01-11T22:23:28.979Z,4.60
2023-01-11T22:25:31.795Z,4.20
2023-01-11T22:27:34.545Z,4.33
2023-01-11T22:29:37.363Z,4.00
2023-01-11T22:31:41.593Z,4.23
2023-01-11T22:33:45.748Z,4.40
2023-01-11T22:35:55.109Z,3.73
2023-01-11T22:37:57.882Z,4.07
2023-01-11T22:40:01.754Z,4.10
2023-01-11T22:42:04.864Z,4.47
2023-01-11T22:44:07.938Z,3.50
2023-01-11T22:46:14.941Z,3.70
2023-01-11T22:48:17.741Z,3.87
2023-01-11T22:50:21.856Z,4.20
2023-01-11T22:52:24.603Z,4.10
2023-01-11T22:54:27.522Z,4.10
2023-01-11T22:56:30.999Z,4.27
2023-01-11T22:58:34.880Z,3.77
2023-01-11T23:00:37.785Z,3.90
2023-01-11T23:02:40.683Z,5.33
2023-01-11T23:04:43.539Z,5.60
2023-01-11T23:06:47.740Z,5.43
2023-01-11T23:08:51.051Z,5.30
2023-01-11T23:10:59.506Z,5.00
2023-01-11T23:13:19.905Z,4.20
2023-01-11T23:15:22.697Z,4.30
2023-01-11T23:17:25.497Z,4.17
2023-01-11T23:19:28.278Z,4.30
2023-01-11T23:21:31.023Z,4.53
2023-01-11T23:23:35.172Z,4.30
2023-01-11T23:25:37.896Z,4.30
2023-01-11T23:27:40.680Z,4.30
2023-01-11T23:29:43.518Z,4.57
2023-01-11T23:31:46.281Z,3.70
2023-01-11T23:33:50.969Z,4.20
2023-01-11T23:35:57.271Z,4.60
2023-01-11T23:38:00.022Z,3.63
2023-01-11T23:40:04.365Z,4.40
2023-01-11T23:42:24.701Z,3.83
2023-01-11T23:44:27.529Z,4.07
2023-01-11T23:46:47.875Z,4.27
2023-01-11T23:48:50.886Z,4.87
2023-01-11T23:50:53.626Z,3.80
2023-01-11T23:52:56.402Z,4.37
2023-01-11T23:54:59.190Z,3.93
2023-01-11T23:57:04.401Z,4.07
2023-01-11T23:59:08.275Z,4.03
